PWSweather.com
Personal Weather Stations
Station Observations
RTINEZ
TerrassaES 08226

TerrassaES 08226

Lat: 41.5762194, Lon: 2.028993700000001

Elevation: 367

Station Type: Watson W8681

www.rtinez.cat

High Low Average
Temperature 80.4°F26.9°C 65.5°F18.6°C 71.6°F22.0°C
Dew Point 64.9°F18.3°C 51.9°F11.1°C 58.5°F14.7°C
Winds 9.2 mph 14.8 kmh Calm Calm 4.0 mph SE6.4 kmh SE
Wind Gusts 115.0 mph185.1 kmh 1.6 mph2.6 kmh 10.0 mph16.1 kmh
Humidity 87% 39% 65%
Pressure 30.11 in1019.6 mb 30.03 in1016.9 mb -
Precipitation 0.00 in0.0 mm - -
Hour Temp Dew Point Humidity Winds Wind Gusts Pressure Precip Precip Rate Daily Precip Total
12:00 AM 67.1°F19.5°C 57.4°F14.1°C 71% 2.2 mph N3.5 kmh N 3.1 mph5.0 kmh 30.06 in1017.9 mb 0.00 in0.0 mm 0.00 in0.0 mm 0.00 in0.0 mm
12:15 AM 67.3°F19.6°C 58.0°F14.4°C 72% 1.6 mph N2.6 kmh N 3.8 mph6.1 kmh 30.06 in1017.9 mb 0.00 in0.0 mm 0.00 in0.0 mm 0.00 in0.0 mm
12:30 AM 67.3°F19.6°C 57.2°F14.0°C 70% 3.8 mph NW6.1 kmh NW 4.5 mph7.2 kmh 30.06 in1017.9 mb 0.00 in0.0 mm 0.00 in0.0 mm 0.00 in0.0 mm
12:45 AM 67.1°F19.5°C 57.4°F14.1°C 71% 3.8 mph NW6.1 kmh NW 4.5 mph7.2 kmh 30.06 in1017.9 mb 0.00 in0.0 mm 0.00 in0.0 mm 0.00 in0.0 mm
01:00 AM 67.1°F19.5°C 57.4°F14.1°C 71% 2.2 mph WNW3.5 kmh WNW 4.5 mph7.2 kmh 30.06 in1017.9 mb 0.00 in0.0 mm 0.00 in0.0 mm 0.00 in0.0 mm
01:15 AM 67.3°F19.6°C 57.6°F14.2°C 71% 2.2 mph NW3.5 kmh NW 3.8 mph6.1 kmh 30.07 in1018.3 mb 0.00 in0.0 mm 0.00 in0.0 mm 0.00 in0.0 mm
01:30 AM 67.1°F19.5°C 57.4°F14.1°C 71% Calm Calm 2.2 mph3.5 kmh 30.05 in1017.6 mb 0.00 in0.0 mm 0.00 in0.0 mm 0.00 in0.0 mm
01:45 AM 66.7°F19.3°C 57.1°F13.9°C 71% 2.2 mph N3.5 kmh N 3.1 mph5.0 kmh 30.06 in1017.9 mb 0.00 in0.0 mm 0.00 in0.0 mm 0.00 in0.0 mm
02:00 AM 67.5°F19.7°C 56.6°F13.7°C 68% 2.2 mph NNW3.5 kmh NNW 4.5 mph7.2 kmh 30.06 in1017.9 mb 0.00 in0.0 mm 0.00 in0.0 mm 0.00 in0.0 mm
02:15 AM 67.3°F19.6°C 55.6°F13.1°C 66% 3.1 mph N5.0 kmh N 6.0 mph9.7 kmh 30.06 in1017.9 mb 0.00 in0.0 mm 0.00 in0.0 mm 0.00 in0.0 mm
02:30 AM 66.7°F19.3°C 55.0°F12.8°C 66% 2.2 mph N3.5 kmh N 3.8 mph6.1 kmh 30.05 in1017.6 mb 0.00 in0.0 mm 0.00 in0.0 mm 0.00 in0.0 mm
02:45 AM 67.3°F19.6°C 56.0°F13.3°C 67% 3.1 mph NNW5.0 kmh NNW 4.5 mph7.2 kmh 30.05 in1017.6 mb 0.00 in0.0 mm 0.00 in0.0 mm 0.00 in0.0 mm
03:00 AM 66.7°F19.3°C 55.5°F13.1°C 67% 1.6 mph NNE2.6 kmh NNE 3.8 mph6.1 kmh 30.05 in1017.6 mb 0.00 in0.0 mm 0.00 in0.0 mm 0.00 in0.0 mm
03:15 AM 67.3°F19.6°C 56.8°F13.8°C 69% 1.6 mph NE2.6 kmh NE 3.1 mph5.0 kmh 30.05 in1017.6 mb 0.00 in0.0 mm 0.00 in0.0 mm 0.00 in0.0 mm
03:30 AM 67.3°F19.6°C 56.0°F13.3°C 67% Calm Calm 3.8 mph6.1 kmh 30.05 in1017.6 mb 0.00 in0.0 mm 0.00 in0.0 mm 0.00 in0.0 mm
03:45 AM 66.9°F19.4°C 56.0°F13.3°C 68% 1.6 mph ENE2.6 kmh ENE 2.2 mph3.5 kmh 30.06 in1017.9 mb 0.00 in0.0 mm 0.00 in0.0 mm 0.00 in0.0 mm
04:00 AM 66.6°F19.2°C 55.7°F13.2°C 68% 3.1 mph NNE5.0 kmh NNE 5.4 mph8.7 kmh 30.06 in1017.9 mb 0.00 in0.0 mm 0.00 in0.0 mm 0.00 in0.0 mm
04:15 AM 66.2°F19.0°C 55.8°F13.2°C 69% 0.7 mph N1.1 kmh N 3.8 mph6.1 kmh 30.05 in1017.6 mb 0.00 in0.0 mm 0.00 in0.0 mm 0.00 in0.0 mm
04:30 AM 65.8°F18.8°C 55.8°F13.2°C 70% 0.7 mph WSW1.1 kmh WSW 3.1 mph5.0 kmh 30.05 in1017.6 mb 0.00 in0.0 mm 0.00 in0.0 mm 0.00 in0.0 mm
04:45 AM 65.5°F18.6°C 55.8°F13.2°C 71% 0.7 mph SE1.1 kmh SE 1.6 mph2.6 kmh 30.05 in1017.6 mb 0.00 in0.0 mm 0.00 in0.0 mm 0.00 in0.0 mm
05:00 AM 65.7°F18.7°C 56.4°F13.6°C 72% 3.8 mph N6.1 kmh N 4.5 mph7.2 kmh 30.06 in1017.9 mb 0.00 in0.0 mm 0.00 in0.0 mm 0.00 in0.0 mm
05:15 AM 65.8°F18.8°C 56.6°F13.7°C 72% 2.2 mph N3.5 kmh N 4.5 mph7.2 kmh 30.05 in1017.6 mb 0.00 in0.0 mm 0.00 in0.0 mm 0.00 in0.0 mm
05:30 AM 66.4°F19.1°C 55.9°F13.3°C 69% 3.1 mph NE5.0 kmh NE 5.4 mph8.7 kmh 30.05 in1017.6 mb 0.00 in0.0 mm 0.00 in0.0 mm 0.00 in0.0 mm
05:45 AM 67.1°F19.5°C 56.2°F13.4°C 68% 3.1 mph NE5.0 kmh NE 5.4 mph8.7 kmh 30.05 in1017.6 mb 0.00 in0.0 mm 0.00 in0.0 mm 0.00 in0.0 mm
06:00 AM 67.8°F19.9°C 56.5°F13.6°C 67% 4.5 mph ENE7.2 kmh ENE 7.6 mph12.2 kmh 30.05 in1017.6 mb 0.00 in0.0 mm 0.00 in0.0 mm 0.00 in0.0 mm
06:15 AM 67.8°F19.9°C 56.5°F13.6°C 67% 5.4 mph NE8.7 kmh NE 8.3 mph13.4 kmh 30.06 in1017.9 mb 0.00 in0.0 mm 0.00 in0.0 mm 0.00 in0.0 mm
06:30 AM 67.8°F19.9°C 56.9°F13.8°C 68% 4.5 mph E7.2 kmh E 7.6 mph12.2 kmh 30.05 in1017.6 mb 0.00 in0.0 mm 0.00 in0.0 mm 0.00 in0.0 mm
06:45 AM 67.3°F19.6°C 57.2°F14.0°C 70% 3.8 mph NE6.1 kmh NE 8.3 mph13.4 kmh 30.06 in1017.9 mb 0.00 in0.0 mm 0.00 in0.0 mm 0.00 in0.0 mm
07:00 AM 67.5°F19.7°C 57.8°F14.3°C 71% 2.2 mph ENE3.5 kmh ENE 10.7 mph17.2 kmh 30.07 in1018.3 mb 0.00 in0.0 mm 0.00 in0.0 mm 0.00 in0.0 mm
07:15 AM 68.7°F20.4°C 58.2°F14.6°C 69% 3.8 mph ENE6.1 kmh ENE 7.6 mph12.2 kmh 30.07 in1018.3 mb 0.00 in0.0 mm 0.00 in0.0 mm 0.00 in0.0 mm
07:30 AM 69.8°F21.0°C 57.5°F14.2°C 65% 3.1 mph ENE5.0 kmh ENE 7.6 mph12.2 kmh 30.08 in1018.6 mb 0.00 in0.0 mm 0.00 in0.0 mm 0.00 in0.0 mm
07:45 AM 70.2°F21.2°C 57.4°F14.1°C 64% 2.2 mph ENE3.5 kmh ENE 6.0 mph9.7 kmh 30.08 in1018.6 mb 0.00 in0.0 mm 0.00 in0.0 mm 0.00 in0.0 mm
08:00 AM 70.3°F21.3°C 57.2°F14.0°C 63% 5.4 mph ENE8.7 kmh ENE 8.3 mph13.4 kmh 30.08 in1018.6 mb 0.00 in0.0 mm 0.00 in0.0 mm 0.00 in0.0 mm
08:15 AM 71.1°F21.7°C 57.0°F13.9°C 61% 2.2 mph E3.5 kmh E 12.1 mph19.5 kmh 30.09 in1019.0 mb 0.00 in0.0 mm 0.00 in0.0 mm 0.00 in0.0 mm
08:30 AM 72.5°F22.5°C 57.4°F14.1°C 59% 6.0 mph E9.7 kmh E 10.7 mph17.2 kmh 30.09 in1019.0 mb 0.00 in0.0 mm 0.00 in0.0 mm 0.00 in0.0 mm
08:45 AM 71.6°F22.0°C 57.5°F14.2°C 61% 2.2 mph SE3.5 kmh SE 8.3 mph13.4 kmh 30.09 in1019.0 mb 0.00 in0.0 mm 0.00 in0.0 mm 0.00 in0.0 mm
09:00 AM 73.2°F22.9°C 57.1°F13.9°C 57% 3.1 mph ESE5.0 kmh ESE 6.0 mph9.7 kmh 30.11 in1019.6 mb 0.00 in0.0 mm 0.00 in0.0 mm 0.00 in0.0 mm
09:15 AM 72.7°F22.6°C 56.6°F13.7°C 57% 2.2 mph SE3.5 kmh SE 7.6 mph12.2 kmh 30.11 in1019.6 mb 0.00 in0.0 mm 0.00 in0.0 mm 0.00 in0.0 mm
09:30 AM 73.6°F23.1°C 55.9°F13.3°C 54% 5.4 mph ESE8.7 kmh ESE 7.6 mph12.2 kmh 30.11 in1019.6 mb 0.00 in0.0 mm 0.00 in0.0 mm 0.00 in0.0 mm
09:45 AM 74.1°F23.4°C 55.4°F13.0°C 52% 3.8 mph E6.1 kmh E 8.3 mph13.4 kmh 30.11 in1019.6 mb 0.00 in0.0 mm 0.00 in0.0 mm 0.00 in0.0 mm
10:00 AM 74.5°F23.6°C 52.4°F11.3°C 46% 4.5 mph SE7.2 kmh SE 9.8 mph15.8 kmh 30.11 in1019.6 mb 0.00 in0.0 mm 0.00 in0.0 mm 0.00 in0.0 mm
10:15 AM 74.7°F23.7°C 53.7°F12.1°C 48% 5.4 mph SE8.7 kmh SE 9.2 mph14.8 kmh 30.11 in1019.6 mb 0.00 in0.0 mm 0.00 in0.0 mm 0.00 in0.0 mm
10:30 AM 75.7°F24.3°C 53.5°F11.9°C 46% 5.4 mph SE8.7 kmh SE 9.2 mph14.8 kmh 30.11 in1019.6 mb 0.00 in0.0 mm 0.00 in0.0 mm 0.00 in0.0 mm
10:45 AM 77.2°F25.1°C 54.2°F12.3°C 45% 4.5 mph SE7.2 kmh SE 8.3 mph13.4 kmh 30.11 in1019.6 mb 0.00 in0.0 mm 0.00 in0.0 mm 0.00 in0.0 mm
11:00 AM 78.6°F25.9°C 53.6°F12.0°C 42% 3.1 mph SE5.0 kmh SE 7.6 mph12.2 kmh 30.10 in1019.3 mb 0.00 in0.0 mm 0.00 in0.0 mm 0.00 in0.0 mm
11:15 AM 79.7°F26.5°C 54.0°F12.2°C 41% 1.6 mph SE2.6 kmh SE 5.4 mph8.7 kmh 30.10 in1019.3 mb 0.00 in0.0 mm 0.00 in0.0 mm 0.00 in0.0 mm
11:30 AM 79.7°F26.5°C 54.0°F12.2°C 41% 4.5 mph SE7.2 kmh SE 7.6 mph12.2 kmh 30.10 in1019.3 mb 0.00 in0.0 mm 0.00 in0.0 mm 0.00 in0.0 mm
11:45 AM 79.7°F26.5°C 54.0°F12.2°C 41% 6.0 mph ESE9.7 kmh ESE 8.3 mph13.4 kmh 30.10 in1019.3 mb 0.00 in0.0 mm 0.00 in0.0 mm 0.00 in0.0 mm
12:00 PM 79.0°F26.1°C 53.3°F11.8°C 41% 3.1 mph SE5.0 kmh SE 9.2 mph14.8 kmh 30.09 in1019.0 mb 0.00 in0.0 mm 0.00 in0.0 mm 0.00 in0.0 mm
12:15 PM 79.0°F26.1°C 51.9°F11.1°C 39% 7.6 mph S12.2 kmh S 9.8 mph15.8 kmh 30.09 in1019.0 mb 0.00 in0.0 mm 0.00 in0.0 mm 0.00 in0.0 mm
12:30 PM 80.4°F26.9°C 53.2°F11.8°C 39% 0.7 mph SE1.1 kmh SE 8.3 mph13.4 kmh 30.07 in1018.3 mb 0.00 in0.0 mm 0.00 in0.0 mm 0.00 in0.0 mm
12:45 PM 79.5°F26.4°C 54.5°F12.5°C 42% 1.6 mph E2.6 kmh E 9.8 mph15.8 kmh 30.08 in1018.6 mb 0.00 in0.0 mm 0.00 in0.0 mm 0.00 in0.0 mm
01:00 PM 79.5°F26.4°C 53.1°F11.7°C 40% 3.8 mph S6.1 kmh S 11.4 mph18.3 kmh 30.07 in1018.3 mb 0.00 in0.0 mm 0.00 in0.0 mm 0.00 in0.0 mm
01:15 PM 79.7°F26.5°C 52.6°F11.4°C 39% 2.2 mph SE3.5 kmh SE 9.2 mph14.8 kmh 30.07 in1018.3 mb 0.00 in0.0 mm 0.00 in0.0 mm 0.00 in0.0 mm
01:30 PM 79.7°F26.5°C 53.3°F11.8°C 40% 4.5 mph SE7.2 kmh SE 11.4 mph18.3 kmh 30.06 in1017.9 mb 0.00 in0.0 mm 0.00 in0.0 mm 0.00 in0.0 mm
01:45 PM 79.5°F26.4°C 54.5°F12.5°C 42% 4.5 mph SE7.2 kmh SE 11.4 mph18.3 kmh 30.06 in1017.9 mb 0.00 in0.0 mm 0.00 in0.0 mm 0.00 in0.0 mm
02:00 PM 80.4°F26.9°C 55.3°F12.9°C 42% 5.4 mph SE8.7 kmh SE 11.4 mph18.3 kmh 30.06 in1017.9 mb 0.00 in0.0 mm 0.00 in0.0 mm 0.00 in0.0 mm
02:15 PM 79.7°F26.5°C 58.9°F14.9°C 49% 8.3 mph SSE13.4 kmh SSE 13.6 mph21.9 kmh 30.06 in1017.9 mb 0.00 in0.0 mm 0.00 in0.0 mm 0.00 in0.0 mm
02:30 PM 79.3°F26.3°C 59.1°F15.1°C 50% 7.6 mph SE12.2 kmh SE 13.0 mph20.9 kmh 30.04 in1017.3 mb 0.00 in0.0 mm 0.00 in0.0 mm 0.00 in0.0 mm
02:45 PM 79.5°F26.4°C 59.3°F15.2°C 50% 6.9 mph ESE11.1 kmh ESE 10.7 mph17.2 kmh 30.04 in1017.3 mb 0.00 in0.0 mm 0.00 in0.0 mm 0.00 in0.0 mm
03:00 PM 79.7°F26.5°C 59.5°F15.3°C 50% 7.6 mph SE12.2 kmh SE 14.5 mph23.3 kmh 30.04 in1017.3 mb 0.00 in0.0 mm 0.00 in0.0 mm 0.00 in0.0 mm
03:15 PM 79.2°F26.2°C 60.6°F15.9°C 53% 6.9 mph SE11.1 kmh SE 15.2 mph24.5 kmh 30.04 in1017.3 mb 0.00 in0.0 mm 0.00 in0.0 mm 0.00 in0.0 mm
03:30 PM 79.2°F26.2°C 61.1°F16.2°C 54% 6.9 mph SE11.1 kmh SE 14.5 mph23.3 kmh 30.04 in1017.3 mb 0.00 in0.0 mm 0.00 in0.0 mm 0.00 in0.0 mm
03:45 PM 79.2°F26.2°C 59.5°F15.3°C 51% 8.3 mph SE13.4 kmh SE 13.0 mph20.9 kmh 30.04 in1017.3 mb 0.00 in0.0 mm 0.00 in0.0 mm 0.00 in0.0 mm
04:00 PM 75.7°F24.3°C 59.9°F15.5°C 58% 9.2 mph SSE14.8 kmh SSE 15.2 mph24.5 kmh 30.03 in1016.9 mb 0.00 in0.0 mm 0.00 in0.0 mm 0.00 in0.0 mm
04:15 PM 75.0°F23.9°C 60.7°F15.9°C 61% 8.3 mph SSW13.4 kmh SSW 20.6 mph33.2 kmh 30.03 in1016.9 mb 0.00 in0.0 mm 0.00 in0.0 mm 0.00 in0.0 mm
04:30 PM 74.5°F23.6°C 60.6°F15.9°C 62% 8.3 mph SSE13.4 kmh SSE 19.0 mph30.6 kmh 30.04 in1017.3 mb 0.00 in0.0 mm 0.00 in0.0 mm 0.00 in0.0 mm
04:45 PM 74.1°F23.4°C 60.8°F16.0°C 63% 6.0 mph SE9.7 kmh SE 15.2 mph24.5 kmh 30.03 in1016.9 mb 0.00 in0.0 mm 0.00 in0.0 mm 0.00 in0.0 mm
05:00 PM 73.2°F22.9°C 60.8°F16.0°C 65% 6.9 mph SE11.1 kmh SE 13.0 mph20.9 kmh 30.03 in1016.9 mb 0.00 in0.0 mm 0.00 in0.0 mm 0.00 in0.0 mm
05:15 PM 72.5°F22.5°C 61.4°F16.3°C 68% 4.5 mph SE7.2 kmh SE 12.1 mph19.5 kmh 30.03 in1016.9 mb 0.00 in0.0 mm 0.00 in0.0 mm 0.00 in0.0 mm
05:30 PM 72.3°F22.4°C 61.6°F16.4°C 69% 5.4 mph ESE8.7 kmh ESE 9.8 mph15.8 kmh 30.03 in1016.9 mb 0.00 in0.0 mm 0.00 in0.0 mm 0.00 in0.0 mm
05:45 PM 72.5°F22.5°C 62.6°F17.0°C 71% 5.4 mph SE8.7 kmh SE 11.4 mph18.3 kmh 30.03 in1016.9 mb 0.00 in0.0 mm 0.00 in0.0 mm 0.00 in0.0 mm
06:00 PM 72.1°F22.3°C 61.8°F16.6°C 70% 6.0 mph ESE9.7 kmh ESE 11.4 mph18.3 kmh 30.03 in1016.9 mb 0.00 in0.0 mm 0.00 in0.0 mm 0.00 in0.0 mm
06:15 PM 72.0°F22.2°C 62.1°F16.7°C 71% 6.9 mph S11.1 kmh S 13.0 mph20.9 kmh 30.04 in1017.3 mb 0.00 in0.0 mm 0.00 in0.0 mm 0.00 in0.0 mm
06:30 PM 71.4°F21.9°C 62.3°F16.8°C 73% 6.0 mph ESE9.7 kmh ESE 12.1 mph19.5 kmh 30.03 in1016.9 mb 0.00 in0.0 mm 0.00 in0.0 mm 0.00 in0.0 mm
06:45 PM 70.7°F21.5°C 63.5°F17.5°C 78% 5.4 mph SE8.7 kmh SE 12.1 mph19.5 kmh 30.04 in1017.3 mb 0.00 in0.0 mm 0.00 in0.0 mm 0.00 in0.0 mm
07:00 PM 70.2°F21.2°C 64.1°F17.8°C 81% 6.0 mph SE9.7 kmh SE 10.7 mph17.2 kmh 30.04 in1017.3 mb 0.00 in0.0 mm 0.00 in0.0 mm 0.00 in0.0 mm
07:15 PM 69.8°F21.0°C 64.4°F18.0°C 83% 7.6 mph SE12.2 kmh SE 15.2 mph24.5 kmh 30.04 in1017.3 mb 0.00 in0.0 mm 0.00 in0.0 mm 0.00 in0.0 mm
07:30 PM 69.6°F20.9°C 64.3°F17.9°C 83% 5.4 mph SE8.7 kmh SE 12.1 mph19.5 kmh 30.05 in1017.6 mb 0.00 in0.0 mm 0.00 in0.0 mm 0.00 in0.0 mm
07:45 PM 69.6°F20.9°C 64.6°F18.1°C 84% 6.0 mph SE9.7 kmh SE 15.9 mph25.6 kmh 30.05 in1017.6 mb 0.00 in0.0 mm 0.00 in0.0 mm 0.00 in0.0 mm
08:00 PM 69.6°F20.9°C 64.6°F18.1°C 84% 6.9 mph SE11.1 kmh SE 10.7 mph17.2 kmh 30.05 in1017.6 mb 0.00 in0.0 mm 0.00 in0.0 mm 0.00 in0.0 mm
08:15 PM 69.6°F20.9°C 64.9°F18.3°C 85% 4.5 mph E7.2 kmh E 9.8 mph15.8 kmh 30.06 in1017.9 mb 0.00 in0.0 mm 0.00 in0.0 mm 0.00 in0.0 mm
08:30 PM 69.4°F20.8°C 64.8°F18.2°C 85% 6.9 mph ESE11.1 kmh ESE 9.2 mph14.8 kmh 30.05 in1017.6 mb 0.00 in0.0 mm 0.00 in0.0 mm 0.00 in0.0 mm
08:45 PM 69.3°F20.7°C 64.6°F18.1°C 85% 5.4 mph SE8.7 kmh SE 11.4 mph18.3 kmh 30.06 in1017.9 mb 0.00 in0.0 mm 0.00 in0.0 mm 0.00 in0.0 mm
09:00 PM 69.3°F20.7°C 64.6°F18.1°C 85% 4.5 mph ESE7.2 kmh ESE 10.7 mph17.2 kmh 30.05 in1017.6 mb 0.00 in0.0 mm 0.00 in0.0 mm 0.00 in0.0 mm
09:15 PM 69.1°F20.6°C 64.4°F18.0°C 85% 2.2 mph SE3.5 kmh SE 9.8 mph15.8 kmh 30.05 in1017.6 mb 0.00 in0.0 mm 0.00 in0.0 mm 0.00 in0.0 mm
09:30 PM 68.9°F20.5°C 64.2°F17.9°C 85% 3.1 mph SE5.0 kmh SE 12.1 mph19.5 kmh 30.05 in1017.6 mb 0.00 in0.0 mm 0.00 in0.0 mm 0.00 in0.0 mm
09:45 PM 68.7°F20.4°C 64.4°F18.0°C 86% 3.8 mph ESE6.1 kmh ESE 11.4 mph18.3 kmh 30.04 in1017.3 mb 0.00 in0.0 mm 0.00 in0.0 mm 0.00 in0.0 mm
10:00 PM 68.5°F20.3°C 64.5°F18.1°C 87% 3.8 mph ESE6.1 kmh ESE 11.4 mph18.3 kmh 30.05 in1017.6 mb 0.00 in0.0 mm 0.00 in0.0 mm 0.00 in0.0 mm
10:15 PM 68.4°F20.2°C 64.4°F18.0°C 87% 3.1 mph ESE5.0 kmh ESE 10.7 mph17.2 kmh 30.03 in1016.9 mb 0.00 in0.0 mm 0.00 in0.0 mm 0.00 in0.0 mm
10:30 PM 68.4°F20.2°C 64.4°F18.0°C 87% 3.8 mph ENE6.1 kmh ENE 8.3 mph13.4 kmh 30.04 in1017.3 mb 0.00 in0.0 mm 0.00 in0.0 mm 0.00 in0.0 mm
10:45 PM 68.4°F20.2°C 64.0°F17.8°C 86% 6.9 mph NNE11.1 kmh NNE 11.4 mph18.3 kmh 30.03 in1016.9 mb 0.00 in0.0 mm 0.00 in0.0 mm 0.00 in0.0 mm
11:00 PM 68.4°F20.2°C 63.7°F17.6°C 85% 4.5 mph ENE7.2 kmh ENE 9.8 mph15.8 kmh 30.03 in1016.9 mb 0.00 in0.0 mm 0.00 in0.0 mm 0.00 in0.0 mm
11:15 PM 68.4°F20.2°C 63.7°F17.6°C 85% 2.2 mph NE3.5 kmh NE 11.4 mph18.3 kmh 30.03 in1016.9 mb 0.00 in0.0 mm 0.00 in0.0 mm 0.00 in0.0 mm
11:30 PM 68.4°F20.2°C 63.4°F17.4°C 84% 4.5 mph ESE7.2 kmh ESE 11.4 mph18.3 kmh 30.03 in1016.9 mb 0.00 in0.0 mm 0.00 in0.0 mm 0.00 in0.0 mm
11:45 PM 68.2°F20.1°C 63.5°F17.5°C 85% 4.5 mph NE7.2 kmh NE 115.0 mph185.1 kmh 30.03 in1016.9 mb 0.00 in0.0 mm 0.00 in0.0 mm 0.00 in0.0 mm